sensor_id;sensor_type;location;lat;lon;timestamp;P1;durP1;ratioP1;P2;durP2;ratioP2
28311;SDS011;15572;48.810;9.148;2023-04-01T00:02:05;1.47;;;0.70;;
28311;SDS011;15572;48.810;9.148;2023-04-01T00:07:01;2.00;;;0.60;;
28311;SDS011;15572;48.810;9.148;2023-04-01T00:11:59;2.37;;;0.60;;
28311;SDS011;15572;48.810;9.148;2023-04-01T00:16:55;1.60;;;0.70;;
28311;SDS011;15572;48.810;9.148;2023-04-01T00:21:52;1.40;;;0.57;;
28311;SDS011;15572;48.810;9.148;2023-04-01T00:26:48;1.10;;;0.50;;
28311;SDS011;15572;48.810;9.148;2023-04-01T00:31:46;2.67;;;0.70;;
28311;SDS011;15572;48.810;9.148;2023-04-01T00:36:44;1.70;;;0.67;;
28311;SDS011;15572;48.810;9.148;2023-04-01T00:41:40;5.70;;;0.70;;
28311;SDS011;15572;48.810;9.148;2023-04-01T00:46:37;3.67;;;0.80;;
28311;SDS011;15572;48.810;9.148;2023-04-01T00:51:34;2.83;;;0.70;;
28311;SDS011;15572;48.810;9.148;2023-04-01T00:56:34;2.77;;;0.73;;
28311;SDS011;15572;48.810;9.148;2023-04-01T01:01:33;1.30;;;0.67;;
28311;SDS011;15572;48.810;9.148;2023-04-01T01:06:37;2.33;;;0.70;;
28311;SDS011;15572;48.810;9.148;2023-04-01T01:11:41;4.80;;;0.90;;
28311;SDS011;15572;48.810;9.148;2023-04-01T01:16:43;3.00;;;0.80;;
28311;SDS011;15572;48.810;9.148;2023-04-01T01:21:55;3.33;;;1.10;;
28311;SDS011;15572;48.810;9.148;2023-04-01T01:27:11;1.30;;;0.70;;
28311;SDS011;15572;48.810;9.148;2023-04-01T01:32:16;3.07;;;0.80;;
28311;SDS011;15572;48.810;9.148;2023-04-01T01:37:26;1.50;;;0.63;;
28311;SDS011;15572;48.810;9.148;2023-04-01T01:42:26;3.13;;;0.90;;
28311;SDS011;15572;48.810;9.148;2023-04-01T01:47:25;2.13;;;0.70;;
28311;SDS011;15572;48.810;9.148;2023-04-01T01:52:26;2.13;;;0.60;;
28311;SDS011;15572;48.810;9.148;2023-04-01T01:57:24;1.50;;;0.70;;
28311;SDS011;15572;48.810;9.148;2023-04-01T02:02:24;1.40;;;0.60;;
28311;SDS011;15572;48.810;9.148;2023-04-01T02:07:23;2.43;;;0.80;;
28311;SDS011;15572;48.810;9.148;2023-04-01T02:12:26;3.13;;;0.67;;
28311;SDS011;15572;48.810;9.148;2023-04-01T02:17:25;0.83;;;0.50;;
28311;SDS011;15572;48.810;9.148;2023-04-01T02:22:24;2.00;;;0.47;;
28311;SDS011;15572;48.810;9.148;2023-04-01T02:27:24;1.27;;;0.53;;
28311;SDS011;15572;48.810;9.148;2023-04-01T02:32:21;1.70;;;0.70;;
28311;SDS011;15572;48.810;9.148;2023-04-01T02:37:18;0.70;;;0.60;;
28311;SDS011;15572;48.810;9.148;2023-04-01T02:42:16;2.07;;;0.93;;
28311;SDS011;15572;48.810;9.148;2023-04-01T02:47:12;1.17;;;0.60;;
28311;SDS011;15572;48.810;9.148;2023-04-01T02:52:09;0.50;;;0.50;;
28311;SDS011;15572;48.810;9.148;2023-04-01T02:57:05;1.70;;;0.50;;
28311;SDS011;15572;48.810;9.148;2023-04-01T03:02:03;1.27;;;0.40;;
28311;SDS011;15572;48.810;9.148;2023-04-01T03:07:00;0.40;;;0.30;;
28311;SDS011;15572;48.810;9.148;2023-04-01T03:11:56;1.20;;;0.60;;
28311;SDS011;15572;48.810;9.148;2023-04-01T03:16:53;1.40;;;0.60;;
28311;SDS011;15572;48.810;9.148;2023-04-01T03:21:51;0.97;;;0.50;;
28311;SDS011;15572;48.810;9.148;2023-04-01T03:26:47;0.73;;;0.47;;
28311;SDS011;15572;48.810;9.148;2023-04-01T03:31:44;1.90;;;0.53;;
28311;SDS011;15572;48.810;9.148;2023-04-01T03:36:41;0.40;;;0.40;;
28311;SDS011;15572;48.810;9.148;2023-04-01T03:41:38;1.37;;;0.53;;
28311;SDS011;15572;48.810;9.148;2023-04-01T03:46:35;0.90;;;0.40;;
28311;SDS011;15572;48.810;9.148;2023-04-01T03:51:32;0.40;;;0.40;;
28311;SDS011;15572;48.810;9.148;2023-04-01T03:56:28;1.43;;;0.50;;
28311;SDS011;15572;48.810;9.148;2023-04-01T04:01:26;1.83;;;0.40;;
28311;SDS011;15572;48.810;9.148;2023-04-01T04:06:23;2.43;;;0.57;;
28311;SDS011;15572;48.810;9.148;2023-04-01T04:11:20;0.60;;;0.40;;
28311;SDS011;15572;48.810;9.148;2023-04-01T04:16:17;1.47;;;0.77;;
28311;SDS011;15572;48.810;9.148;2023-04-01T04:21:15;1.80;;;0.60;;
28311;SDS011;15572;48.810;9.148;2023-04-01T04:26:13;0.67;;;0.40;;
28311;SDS011;15572;48.810;9.148;2023-04-01T04:31:10;1.97;;;0.70;;
28311;SDS011;15572;48.810;9.148;2023-04-01T04:36:07;1.90;;;0.40;;
28311;SDS011;15572;48.810;9.148;2023-04-01T04:41:09;1.77;;;0.60;;
28311;SDS011;15572;48.810;9.148;2023-04-01T04:46:06;1.57;;;0.57;;
28311;SDS011;15572;48.810;9.148;2023-04-01T04:51:03;2.50;;;0.60;;
28311;SDS011;15572;48.810;9.148;2023-04-01T04:56:00;1.73;;;0.67;;
28311;SDS011;15572;48.810;9.148;2023-04-01T05:00:58;0.93;;;0.43;;
28311;SDS011;15572;48.810;9.148;2023-04-01T05:05:54;1.87;;;0.50;;
28311;SDS011;15572;48.810;9.148;2023-04-01T05:10:51;0.80;;;0.60;;
28311;SDS011;15572;48.810;9.148;2023-04-01T05:15:47;2.37;;;0.60;;
28311;SDS011;15572;48.810;9.148;2023-04-01T05:20:48;1.73;;;0.50;;
28311;SDS011;15572;48.810;9.148;2023-04-01T05:25:46;1.20;;;0.53;;
28311;SDS011;15572;48.810;9.148;2023-04-01T05:30:43;1.27;;;0.67;;
28311;SDS011;15572;48.810;9.148;2023-04-01T05:35:40;3.10;;;0.70;;
28311;SDS011;15572;48.810;9.148;2023-04-01T05:40:38;1.20;;;0.60;;
28311;SDS011;15572;48.810;9.148;2023-04-01T05:45:34;0.73;;;0.57;;
28311;SDS011;15572;48.810;9.148;2023-04-01T05:50:31;1.17;;;0.50;;
28311;SDS011;15572;48.810;9.148;2023-04-01T05:55:28;2.83;;;0.90;;
28311;SDS011;15572;48.810;9.148;2023-04-01T06:00:26;2.80;;;0.80;;
28311;SDS011;15572;48.810;9.148;2023-04-01T06:05:23;1.33;;;0.53;;
28311;SDS011;15572;48.810;9.148;2023-04-01T06:10:21;1.73;;;0.60;;
28311;SDS011;15572;48.810;9.148;2023-04-01T06:15:32;2.07;;;0.60;;
28311;SDS011;15572;48.810;9.148;2023-04-01T06:20:37;1.70;;;0.57;;
28311;SDS011;15572;48.810;9.148;2023-04-01T06:25:42;0.77;;;0.40;;
28311;SDS011;15572;48.810;9.148;2023-04-01T06:30:49;2.10;;;0.60;;
28311;SDS011;15572;48.810;9.148;2023-04-01T06:35:58;1.70;;;0.50;;
28311;SDS011;15572;48.810;9.148;2023-04-01T06:46:40;1.70;;;0.50;;
28311;SDS011;15572;48.810;9.148;2023-04-01T06:51:43;3.80;;;0.90;;
28311;SDS011;15572;48.810;9.148;2023-04-01T06:56:48;1.30;;;0.80;;
28311;SDS011;15572;48.810;9.148;2023-04-01T07:01:54;1.13;;;0.40;;
28311;SDS011;15572;48.810;9.148;2023-04-01T07:06:53;1.27;;;0.50;;
28311;SDS011;15572;48.810;9.148;2023-04-01T07:11:53;1.23;;;0.57;;
28311;SDS011;15572;48.810;9.148;2023-04-01T07:16:56;1.70;;;0.70;;
28311;SDS011;15572;48.810;9.148;2023-04-01T07:21:58;0.87;;;0.50;;
28311;SDS011;15572;48.810;9.148;2023-04-01T07:26:57;1.27;;;0.60;;
28311;SDS011;15572;48.810;9.148;2023-04-01T07:32:09;0.80;;;0.50;;
28311;SDS011;15572;48.810;9.148;2023-04-01T07:37:14;1.67;;;0.67;;
28311;SDS011;15572;48.810;9.148;2023-04-01T07:42:15;0.77;;;0.50;;
28311;SDS011;15572;48.810;9.148;2023-04-01T07:47:28;2.50;;;0.70;;
28311;SDS011;15572;48.810;9.148;2023-04-01T07:52:39;2.10;;;0.60;;
28311;SDS011;15572;48.810;9.148;2023-04-01T07:57:47;4.23;;;0.60;;
28311;SDS011;15572;48.810;9.148;2023-04-01T08:02:53;2.83;;;0.60;;
28311;SDS011;15572;48.810;9.148;2023-04-01T08:08:06;2.27;;;0.70;;
28311;SDS011;15572;48.810;9.148;2023-04-01T08:13:12;1.33;;;0.70;;
28311;SDS011;15572;48.810;9.148;2023-04-01T08:18:17;0.73;;;0.50;;
28311;SDS011;15572;48.810;9.148;2023-04-01T08:23:26;0.73;;;0.60;;
28311;SDS011;15572;48.810;9.148;2023-04-01T08:28:25;0.93;;;0.60;;
28311;SDS011;15572;48.810;9.148;2023-04-01T08:33:29;0.70;;;0.60;;
28311;SDS011;15572;48.810;9.148;2023-04-01T08:38:29;1.10;;;0.47;;
28311;SDS011;15572;48.810;9.148;2023-04-01T08:43:34;1.30;;;0.70;;
28311;SDS011;15572;48.810;9.148;2023-04-01T08:48:50;1.80;;;0.60;;
28311;SDS011;15572;48.810;9.148;2023-04-01T08:54:14;0.70;;;0.60;;
28311;SDS011;15572;48.810;9.148;2023-04-01T08:59:30;0.93;;;0.50;;
28311;SDS011;15572;48.810;9.148;2023-04-01T09:04:41;0.70;;;0.60;;
28311;SDS011;15572;48.810;9.148;2023-04-01T09:10:18;2.53;;;0.70;;
28311;SDS011;15572;48.810;9.148;2023-04-01T09:15:37;2.67;;;0.50;;
28311;SDS011;15572;48.810;9.148;2023-04-01T09:20:50;1.03;;;0.50;;
28311;SDS011;15572;48.810;9.148;2023-04-01T09:26:03;0.53;;;0.40;;
28311;SDS011;15572;48.810;9.148;2023-04-01T09:31:17;0.77;;;0.40;;
28311;SDS011;15572;48.810;9.148;2023-04-01T09:36:26;0.90;;;0.30;;
28311;SDS011;15572;48.810;9.148;2023-04-01T09:41:35;0.40;;;0.40;;
28311;SDS011;15572;48.810;9.148;2023-04-01T09:46:45;0.43;;;0.30;;
28311;SDS011;15572;48.810;9.148;2023-04-01T09:51:57;0.90;;;0.43;;
28311;SDS011;15572;48.810;9.148;2023-04-01T09:57:11;0.37;;;0.37;;
28311;SDS011;15572;48.810;9.148;2023-04-01T10:13:42;0.43;;;0.43;;
28311;SDS011;15572;48.810;9.148;2023-04-01T10:19:03;0.30;;;0.30;;
28311;SDS011;15572;48.810;9.148;2023-04-01T10:24:18;0.33;;;0.33;;
28311;SDS011;15572;48.810;9.148;2023-04-01T10:29:51;0.30;;;0.30;;
28311;SDS011;15572;48.810;9.148;2023-04-01T10:35:14;0.30;;;0.30;;
28311;SDS011;15572;48.810;9.148;2023-04-01T10:40:29;0.50;;;0.37;;
28311;SDS011;15572;48.810;9.148;2023-04-01T10:45:53;0.50;;;0.40;;
28311;SDS011;15572;48.810;9.148;2023-04-01T10:56:35;0.30;;;0.30;;
28311;SDS011;15572;48.810;9.148;2023-04-01T11:07:21;0.40;;;0.20;;
28311;SDS011;15572;48.810;9.148;2023-04-01T11:12:38;0.23;;;0.23;;
28311;SDS011;15572;48.810;9.148;2023-04-01T11:23:29;1.57;;;0.30;;
28311;SDS011;15572;48.810;9.148;2023-04-01T11:28:46;0.27;;;0.27;;
28311;SDS011;15572;48.810;9.148;2023-04-01T11:34:01;0.40;;;0.40;;
28311;SDS011;15572;48.810;9.148;2023-04-01T11:39:11;0.37;;;0.37;;
28311;SDS011;15572;48.810;9.148;2023-04-01T11:44:20;0.20;;;0.20;;
28311;SDS011;15572;48.810;9.148;2023-04-01T11:49:36;0.30;;;0.30;;
28311;SDS011;15572;48.810;9.148;2023-04-01T11:54:56;0.20;;;0.20;;
28311;SDS011;15572;48.810;9.148;2023-04-01T12:00:15;1.50;;;0.30;;
28311;SDS011;15572;48.810;9.148;2023-04-01T12:05:33;0.40;;;0.40;;
28311;SDS011;15572;48.810;9.148;2023-04-01T12:10:38;0.30;;;0.30;;
28311;SDS011;15572;48.810;9.148;2023-04-01T12:15:45;0.30;;;0.30;;
28311;SDS011;15572;48.810;9.148;2023-04-01T12:20:53;0.37;;;0.37;;
28311;SDS011;15572;48.810;9.148;2023-04-01T12:31:31;1.70;;;0.40;;
28311;SDS011;15572;48.810;9.148;2023-04-01T12:36:40;0.30;;;0.30;;
28311;SDS011;15572;48.810;9.148;2023-04-01T12:41:48;0.30;;;0.30;;
28311;SDS011;15572;48.810;9.148;2023-04-01T12:47:04;0.30;;;0.30;;
28311;SDS011;15572;48.810;9.148;2023-04-01T12:52:13;0.30;;;0.30;;
28311;SDS011;15572;48.810;9.148;2023-04-01T12:57:20;0.30;;;0.30;;
28311;SDS011;15572;48.810;9.148;2023-04-01T13:02:37;0.30;;;0.30;;
28311;SDS011;15572;48.810;9.148;2023-04-01T13:07:47;0.30;;;0.30;;
28311;SDS011;15572;48.810;9.148;2023-04-01T13:13:06;0.30;;;0.30;;
28311;SDS011;15572;48.810;9.148;2023-04-01T13:18:21;0.37;;;0.30;;
28311;SDS011;15572;48.810;9.148;2023-04-01T13:23:30;0.30;;;0.30;;
28311;SDS011;15572;48.810;9.148;2023-04-01T13:28:32;0.30;;;0.30;;
28311;SDS011;15572;48.810;9.148;2023-04-01T13:33:37;0.40;;;0.30;;
28311;SDS011;15572;48.810;9.148;2023-04-01T13:38:45;0.20;;;0.20;;
28311;SDS011;15572;48.810;9.148;2023-04-01T13:43:48;0.33;;;0.33;;
28311;SDS011;15572;48.810;9.148;2023-04-01T13:48:56;0.30;;;0.30;;
28311;SDS011;15572;48.810;9.148;2023-04-01T13:59:40;0.20;;;0.20;;
28311;SDS011;15572;48.810;9.148;2023-04-01T14:04:55;0.30;;;0.30;;
28311;SDS011;15572;48.810;9.148;2023-04-01T14:10:07;0.20;;;0.20;;
28311;SDS011;15572;48.810;9.148;2023-04-01T14:15:23;0.30;;;0.30;;
28311;SDS011;15572;48.810;9.148;2023-04-01T14:20:31;0.30;;;0.30;;
28311;SDS011;15572;48.810;9.148;2023-04-01T14:25:46;0.20;;;0.20;;
28311;SDS011;15572;48.810;9.148;2023-04-01T14:31:04;0.40;;;0.40;;
28311;SDS011;15572;48.810;9.148;2023-04-01T14:36:28;0.30;;;0.30;;
28311;SDS011;15572;48.810;9.148;2023-04-01T14:41:35;0.30;;;0.30;;
28311;SDS011;15572;48.810;9.148;2023-04-01T14:46:55;0.30;;;0.30;;
28311;SDS011;15572;48.810;9.148;2023-04-01T14:52:11;0.30;;;0.30;;
28311;SDS011;15572;48.810;9.148;2023-04-01T14:57:12;0.37;;;0.37;;
28311;SDS011;15572;48.810;9.148;2023-04-01T15:02:14;0.40;;;0.40;;
28311;SDS011;15572;48.810;9.148;2023-04-01T15:07:42;0.30;;;0.30;;
28311;SDS011;15572;48.810;9.148;2023-04-01T15:12:50;0.30;;;0.30;;
28311;SDS011;15572;48.810;9.148;2023-04-01T15:18:06;0.40;;;0.40;;
28311;SDS011;15572;48.810;9.148;2023-04-01T15:23:10;0.40;;;0.40;;
28311;SDS011;15572;48.810;9.148;2023-04-01T15:28:15;0.30;;;0.30;;
28311;SDS011;15572;48.810;9.148;2023-04-01T15:33:27;0.40;;;0.40;;
28311;SDS011;15572;48.810;9.148;2023-04-01T15:38:34;0.30;;;0.30;;
28311;SDS011;15572;48.810;9.148;2023-04-01T15:43:39;0.40;;;0.30;;
28311;SDS011;15572;48.810;9.148;2023-04-01T15:48:45;0.40;;;0.40;;
28311;SDS011;15572;48.810;9.148;2023-04-01T15:53:59;0.40;;;0.40;;
28311;SDS011;15572;48.810;9.148;2023-04-01T15:59:13;0.23;;;0.20;;
28311;SDS011;15572;48.810;9.148;2023-04-01T16:04:21;0.30;;;0.30;;
28311;SDS011;15572;48.810;9.148;2023-04-01T16:09:37;0.50;;;0.50;;
28311;SDS011;15572;48.810;9.148;2023-04-01T16:14:44;0.37;;;0.37;;
28311;SDS011;15572;48.810;9.148;2023-04-01T16:19:51;0.60;;;0.40;;
28311;SDS011;15572;48.810;9.148;2023-04-01T16:24:54;0.50;;;0.47;;
28311;SDS011;15572;48.810;9.148;2023-04-01T16:29:58;0.40;;;0.40;;
28311;SDS011;15572;48.810;9.148;2023-04-01T16:35:03;0.77;;;0.50;;
28311;SDS011;15572;48.810;9.148;2023-04-01T16:40:23;0.50;;;0.50;;
28311;SDS011;15572;48.810;9.148;2023-04-01T16:45:32;0.53;;;0.40;;
28311;SDS011;15572;48.810;9.148;2023-04-01T16:50:39;0.57;;;0.57;;
28311;SDS011;15572;48.810;9.148;2023-04-01T16:55:46;0.60;;;0.50;;
28311;SDS011;15572;48.810;9.148;2023-04-01T17:00:48;1.60;;;0.50;;
28311;SDS011;15572;48.810;9.148;2023-04-01T17:05:49;0.83;;;0.70;;
28311;SDS011;15572;48.810;9.148;2023-04-01T17:10:59;0.80;;;0.80;;
28311;SDS011;15572;48.810;9.148;2023-04-01T17:16:04;0.70;;;0.50;;
28311;SDS011;15572;48.810;9.148;2023-04-01T17:21:12;1.57;;;0.97;;
28311;SDS011;15572;48.810;9.148;2023-04-01T17:26:17;3.33;;;1.30;;
28311;SDS011;15572;48.810;9.148;2023-04-01T17:31:33;1.33;;;0.60;;
28311;SDS011;15572;48.810;9.148;2023-04-01T17:36:42;0.70;;;0.60;;
28311;SDS011;15572;48.810;9.148;2023-04-01T17:41:52;1.13;;;0.70;;
28311;SDS011;15572;48.810;9.148;2023-04-01T17:52:26;2.03;;;0.67;;
28311;SDS011;15572;48.810;9.148;2023-04-01T17:57:33;0.87;;;0.70;;
28311;SDS011;15572;48.810;9.148;2023-04-01T18:02:42;1.30;;;0.70;;
28311;SDS011;15572;48.810;9.148;2023-04-01T18:07:56;1.00;;;0.70;;
28311;SDS011;15572;48.810;9.148;2023-04-01T18:13:08;3.50;;;0.90;;
28311;SDS011;15572;48.810;9.148;2023-04-01T18:18:25;3.67;;;1.23;;
28311;SDS011;15572;48.810;9.148;2023-04-01T18:23:35;3.33;;;1.60;;
28311;SDS011;15572;48.810;9.148;2023-04-01T18:28:37;1.70;;;1.27;;
28311;SDS011;15572;48.810;9.148;2023-04-01T18:33:37;2.33;;;1.17;;
28311;SDS011;15572;48.810;9.148;2023-04-01T18:38:44;1.50;;;1.37;;
28311;SDS011;15572;48.810;9.148;2023-04-01T18:43:51;3.40;;;0.97;;
28311;SDS011;15572;48.810;9.148;2023-04-01T18:49:06;0.93;;;0.70;;
28311;SDS011;15572;48.810;9.148;2023-04-01T18:54:10;2.80;;;0.77;;
28311;SDS011;15572;48.810;9.148;2023-04-01T19:04:15;1.40;;;0.60;;
28311;SDS011;15572;48.810;9.148;2023-04-01T19:09:20;2.13;;;0.90;;
28311;SDS011;15572;48.810;9.148;2023-04-01T19:14:22;3.53;;;0.80;;
28311;SDS011;15572;48.810;9.148;2023-04-01T19:19:40;1.27;;;1.00;;
28311;SDS011;15572;48.810;9.148;2023-04-01T19:24:47;1.20;;;0.70;;
28311;SDS011;15572;48.810;9.148;2023-04-01T19:30:02;4.50;;;1.00;;
28311;SDS011;15572;48.810;9.148;2023-04-01T19:35:13;2.23;;;1.07;;
28311;SDS011;15572;48.810;9.148;2023-04-01T19:40:29;1.67;;;1.00;;
28311;SDS011;15572;48.810;9.148;2023-04-01T19:45:35;3.47;;;1.10;;
28311;SDS011;15572;48.810;9.148;2023-04-01T19:50:39;1.93;;;0.83;;
28311;SDS011;15572;48.810;9.148;2023-04-01T19:55:44;1.10;;;0.73;;
28311;SDS011;15572;48.810;9.148;2023-04-01T20:00:47;2.07;;;0.83;;
28311;SDS011;15572;48.810;9.148;2023-04-01T20:05:50;1.90;;;0.77;;
28311;SDS011;15572;48.810;9.148;2023-04-01T20:11:01;0.73;;;0.60;;
28311;SDS011;15572;48.810;9.148;2023-04-01T20:16:06;0.50;;;0.50;;
28311;SDS011;15572;48.810;9.148;2023-04-01T20:21:05;1.73;;;0.70;;
28311;SDS011;15572;48.810;9.148;2023-04-01T20:26:12;0.93;;;0.70;;
28311;SDS011;15572;48.810;9.148;2023-04-01T20:31:23;1.10;;;0.70;;
28311;SDS011;15572;48.810;9.148;2023-04-01T20:36:25;1.02;;;0.80;;
28311;SDS011;15572;48.810;9.148;2023-04-01T20:41:32;1.07;;;0.60;;
28311;SDS011;15572;48.810;9.148;2023-04-01T20:46:40;1.83;;;0.70;;
28311;SDS011;15572;48.810;9.148;2023-04-01T20:51:46;1.00;;;0.80;;
28311;SDS011;15572;48.810;9.148;2023-04-01T20:56:53;1.03;;;0.70;;
28311;SDS011;15572;48.810;9.148;2023-04-01T21:01:59;2.97;;;0.70;;
28311;SDS011;15572;48.810;9.148;2023-04-01T21:07:16;0.60;;;0.50;;
28311;SDS011;15572;48.810;9.148;2023-04-01T21:12:20;1.37;;;0.70;;
28311;SDS011;15572;48.810;9.148;2023-04-01T21:17:32;0.70;;;0.60;;
28311;SDS011;15572;48.810;9.148;2023-04-01T21:22:46;0.77;;;0.70;;
28311;SDS011;15572;48.810;9.148;2023-04-01T21:28:10;0.73;;;0.70;;
28311;SDS011;15572;48.810;9.148;2023-04-01T21:33:23;0.70;;;0.70;;
28311;SDS011;15572;48.810;9.148;2023-04-01T21:38:33;0.70;;;0.70;;
28311;SDS011;15572;48.810;9.148;2023-04-01T21:43:45;0.77;;;0.77;;
28311;SDS011;15572;48.810;9.148;2023-04-01T21:49:18;1.63;;;0.90;;
28311;SDS011;15572;48.810;9.148;2023-04-01T21:54:39;1.70;;;0.70;;
28311;SDS011;15572;48.810;9.148;2023-04-01T22:05:16;2.77;;;0.90;;
28311;SDS011;15572;48.810;9.148;2023-04-01T22:10:21;1.10;;;0.77;;
28311;SDS011;15572;48.810;9.148;2023-04-01T22:15:26;1.30;;;0.60;;
28311;SDS011;15572;48.810;9.148;2023-04-01T22:20:40;0.87;;;0.63;;
28311;SDS011;15572;48.810;9.148;2023-04-01T22:25:46;0.70;;;0.70;;
28311;SDS011;15572;48.810;9.148;2023-04-01T22:30:51;0.80;;;0.80;;
28311;SDS011;15572;48.810;9.148;2023-04-01T22:35:53;1.17;;;0.80;;
28311;SDS011;15572;48.810;9.148;2023-04-01T22:41:01;0.57;;;0.50;;
28311;SDS011;15572;48.810;9.148;2023-04-01T22:46:19;1.00;;;0.60;;
28311;SDS011;15572;48.810;9.148;2023-04-01T22:51:23;0.93;;;0.60;;
28311;SDS011;15572;48.810;9.148;2023-04-01T22:56:29;0.90;;;0.70;;
28311;SDS011;15572;48.810;9.148;2023-04-01T23:01:30;0.80;;;0.80;;
28311;SDS011;15572;48.810;9.148;2023-04-01T23:06:35;1.13;;;0.80;;
28311;SDS011;15572;48.810;9.148;2023-04-01T23:11:39;1.63;;;0.73;;
28311;SDS011;15572;48.810;9.148;2023-04-01T23:16:41;0.70;;;0.70;;
28311;SDS011;15572;48.810;9.148;2023-04-01T23:21:42;0.57;;;0.53;;
28311;SDS011;15572;48.810;9.148;2023-04-01T23:26:48;1.33;;;0.90;;
28311;SDS011;15572;48.810;9.148;2023-04-01T23:31:56;0.60;;;0.60;;
28311;SDS011;15572;48.810;9.148;2023-04-01T23:36:53;1.37;;;0.80;;
28311;SDS011;15572;48.810;9.148;2023-04-01T23:41:54;1.13;;;0.60;;
28311;SDS011;15572;48.810;9.148;2023-04-01T23:46:52;1.37;;;0.70;;
28311;SDS011;15572;48.810;9.148;2023-04-01T23:51:52;0.50;;;0.50;;
28311;SDS011;15572;48.810;9.148;2023-04-01T23:56:53;0.80;;;0.63;;
